createdAt,value
2022-11-16T00:01:18.618Z,12.10
2022-11-16T00:03:45.628Z,12.10
2022-11-16T00:06:13.994Z,12.10
2022-11-16T00:08:44.685Z,12.10
2022-11-16T00:11:15.076Z,12.10
2022-11-16T00:13:43.372Z,12.00
2022-11-16T00:16:17.719Z,12.00
2022-11-16T00:18:45.010Z,12.00
2022-11-16T00:21:12.095Z,12.00
2022-11-16T00:23:39.069Z,12.00
2022-11-16T00:26:12.128Z,12.00
2022-11-16T00:28:38.946Z,12.00
2022-11-16T00:31:07.181Z,12.00
2022-11-16T00:33:34.514Z,12.00
2022-11-16T00:36:05.661Z,12.00
2022-11-16T00:38:32.908Z,11.90
2022-11-16T00:41:00.174Z,11.90
2022-11-16T00:43:27.723Z,12.00
2022-11-16T00:45:54.821Z,11.90
2022-11-16T00:48:22.020Z,11.90
2022-11-16T00:50:49.284Z,11.90
2022-11-16T00:53:17.952Z,11.90
2022-11-16T00:55:45.952Z,11.90
2022-11-16T00:58:13.848Z,11.90
2022-11-16T01:00:41.250Z,11.90
2022-11-16T01:03:08.230Z,11.90
2022-11-16T01:05:35.181Z,11.90
2022-11-16T01:08:02.041Z,11.90
2022-11-16T01:10:29.479Z,11.90
2022-11-16T01:12:56.882Z,11.90
2022-11-16T01:15:26.071Z,11.90
2022-11-16T01:17:54.685Z,11.90
2022-11-16T01:20:23.600Z,12.00
2022-11-16T01:22:50.678Z,12.00
2022-11-16T01:25:17.727Z,12.00
2022-11-16T01:27:44.959Z,12.00
2022-11-16T01:30:13.928Z,12.00
2022-11-16T01:32:40.786Z,12.00
2022-11-16T01:35:08.805Z,11.90
2022-11-16T01:37:35.620Z,11.90
2022-11-16T01:40:02.449Z,12.00
2022-11-16T01:42:31.053Z,11.90
2022-11-16T01:45:02.057Z,11.90
2022-11-16T01:47:29.659Z,11.90
2022-11-16T01:50:10.341Z,11.90
2022-11-16T01:52:43.766Z,11.90
2022-11-16T01:55:12.208Z,11.90
2022-11-16T01:57:42.567Z,12.00
2022-11-16T02:00:11.669Z,11.90
2022-11-16T02:02:38.602Z,11.90
2022-11-16T02:05:06.705Z,11.90
2022-11-16T02:08:10.984Z,11.90
2022-11-16T02:11:00.855Z,11.80
2022-11-16T02:13:45.723Z,11.80
2022-11-16T02:16:21.576Z,11.80
2022-11-16T02:19:00.238Z,11.80
2022-11-16T02:21:41.198Z,11.80
2022-11-16T02:24:10.790Z,11.80
2022-11-16T02:26:55.685Z,11.70
2022-11-16T02:29:55.013Z,11.70
2022-11-16T02:32:34.112Z,11.70
2022-11-16T02:35:32.739Z,11.70
2022-11-16T02:38:10.952Z,11.70
2022-11-16T02:40:42.983Z,11.70
2022-11-16T02:43:18.226Z,11.70
2022-11-16T02:45:49.841Z,11.60
2022-11-16T02:48:30.468Z,11.60
2022-11-16T02:50:57.641Z,11.60
2022-11-16T02:53:25.820Z,11.60
2022-11-16T02:55:52.748Z,11.60
2022-11-16T02:58:25.639Z,11.60
2022-11-16T03:01:06.106Z,11.60
2022-11-16T03:03:40.579Z,11.60
2022-11-16T03:06:16.340Z,11.50
2022-11-16T03:09:07.372Z,11.50
2022-11-16T03:11:56.237Z,11.50
2022-11-16T03:14:26.906Z,11.50
2022-11-16T03:16:57.652Z,11.50
2022-11-16T03:19:36.568Z,11.50
2022-11-16T03:22:12.512Z,11.50
2022-11-16T03:24:39.500Z,11.50
2022-11-16T03:27:21.332Z,11.50
2022-11-16T03:30:23.587Z,11.50
2022-11-16T03:33:09.042Z,11.50
2022-11-16T03:35:43.689Z,11.40
2022-11-16T03:38:12.697Z,11.40
2022-11-16T03:40:40.678Z,11.40
2022-11-16T03:43:08.649Z,11.40
2022-11-16T03:45:36.958Z,11.40
2022-11-16T03:48:04.269Z,11.40
2022-11-16T03:50:31.079Z,11.40
2022-11-16T03:52:57.879Z,11.40
2022-11-16T03:55:24.735Z,11.40
2022-11-16T03:57:51.564Z,11.40
2022-11-16T04:00:18.536Z,11.40
2022-11-16T04:02:45.408Z,11.30
2022-11-16T04:05:30.864Z,11.30
2022-11-16T04:08:16.496Z,11.30
2022-11-16T04:11:03.048Z,11.30
2022-11-16T04:14:08.010Z,11.30
2022-11-16T04:16:54.667Z,11.30
2022-11-16T04:19:40.151Z,11.30
2022-11-16T04:22:35.815Z,11.30
2022-11-16T04:25:12.283Z,11.30
2022-11-16T04:27:57.802Z,11.30
2022-11-16T04:30:24.680Z,11.30
2022-11-16T04:33:09.902Z,11.30
2022-11-16T04:35:55.498Z,11.30
2022-11-16T04:38:22.425Z,11.30
2022-11-16T04:40:49.291Z,11.30
2022-11-16T04:43:16.092Z,11.30
2022-11-16T04:46:01.461Z,11.30
2022-11-16T04:48:28.292Z,11.30
2022-11-16T04:50:55.122Z,11.30
2022-11-16T04:53:24.055Z,11.40
2022-11-16T04:55:51.202Z,11.40
2022-11-16T04:58:18.072Z,11.40
2022-11-16T05:00:44.843Z,11.40
2022-11-16T05:03:11.653Z,11.50
2022-11-16T05:05:38.512Z,11.40
2022-11-16T05:08:05.427Z,11.50
2022-11-16T05:10:32.356Z,11.50
2022-11-16T05:12:59.154Z,11.50
2022-11-16T05:15:25.992Z,11.50
2022-11-16T05:17:54.949Z,11.60
2022-11-16T05:20:40.628Z,11.60
2022-11-16T05:23:27.418Z,11.50
2022-11-16T05:25:57.081Z,11.60
2022-11-16T05:28:23.984Z,11.60
2022-11-16T05:30:50.812Z,11.60
2022-11-16T05:33:18.699Z,11.60
2022-11-16T05:35:46.037Z,11.60
2022-11-16T05:38:12.834Z,11.50
2022-11-16T05:40:39.637Z,11.60
2022-11-16T05:43:06.437Z,11.60
2022-11-16T05:45:33.279Z,11.60
2022-11-16T05:48:00.166Z,11.50
2022-11-16T05:50:27.066Z,11.50
2022-11-16T05:52:53.908Z,11.50
2022-11-16T05:55:20.723Z,11.50
2022-11-16T05:57:47.519Z,11.50
2022-11-16T06:00:15.092Z,11.50
2022-11-16T06:02:42.364Z,11.50
2022-11-16T06:05:09.399Z,11.50
2022-11-16T06:07:36.339Z,11.50
2022-11-16T06:10:03.429Z,11.60
2022-11-16T06:12:30.255Z,11.50
2022-11-16T06:14:57.057Z,11.60
2022-11-16T06:17:23.847Z,11.60
2022-11-16T06:19:50.657Z,11.60
2022-11-16T06:22:17.480Z,11.60
2022-11-16T06:24:44.266Z,11.60
2022-11-16T06:27:11.133Z,11.50
2022-11-16T06:29:37.949Z,11.50
2022-11-16T06:32:05.005Z,11.50
2022-11-16T06:34:31.822Z,11.60
2022-11-16T06:36:58.655Z,11.60
2022-11-16T06:39:25.491Z,11.50
2022-11-16T06:41:52.322Z,11.60
2022-11-16T06:44:19.107Z,11.50
2022-11-16T06:46:45.995Z,11.50
2022-11-16T06:49:12.863Z,11.50
2022-11-16T06:51:39.673Z,11.50
2022-11-16T06:54:06.592Z,11.50
2022-11-16T06:56:35.177Z,11.50
2022-11-16T06:59:02.154Z,11.50
2022-11-16T07:01:30.318Z,11.60
2022-11-16T07:03:57.882Z,11.50
2022-11-16T07:06:24.730Z,11.60
2022-11-16T07:08:51.517Z,11.50
2022-11-16T07:11:18.373Z,11.50
2022-11-16T07:13:45.186Z,11.50
2022-11-16T07:16:12.509Z,11.50
2022-11-16T07:18:40.674Z,11.50
2022-11-16T07:21:15.019Z,11.60
2022-11-16T07:23:42.042Z,11.60
2022-11-16T07:26:10.225Z,11.60
2022-11-16T07:28:39.149Z,11.60
2022-11-16T07:31:11.543Z,11.60
2022-11-16T07:33:38.962Z,11.60
2022-11-16T07:36:08.414Z,11.60
2022-11-16T07:38:35.763Z,11.60
2022-11-16T07:41:05.436Z,11.60
2022-11-16T07:43:35.151Z,11.60
2022-11-16T07:46:44.753Z,11.60
2022-11-16T07:48:53.714Z,11.60
2022-11-16T07:51:20.714Z,11.70
2022-11-16T07:53:47.525Z,11.70
2022-11-16T07:56:14.369Z,11.80
2022-11-16T07:58:41.184Z,11.80
2022-11-16T08:01:13.438Z,11.80
2022-11-16T08:03:41.421Z,11.80
2022-11-16T08:06:20.988Z,11.80
2022-11-16T08:08:47.804Z,11.90
2022-11-16T08:11:14.676Z,11.90
2022-11-16T08:13:42.667Z,11.90
2022-11-16T08:16:16.532Z,11.90
2022-11-16T08:18:44.350Z,12.00
2022-11-16T08:21:13.941Z,12.00
2022-11-16T08:23:41.670Z,12.10
2022-11-16T08:26:11.163Z,12.10
2022-11-16T08:28:38.223Z,12.10
2022-11-16T08:31:15.463Z,12.10
2022-11-16T08:33:45.160Z,12.10
2022-11-16T08:36:17.252Z,12.10
2022-11-16T08:38:45.140Z,12.20
2022-11-16T08:41:12.584Z,12.20
2022-11-16T08:43:40.560Z,12.20
2022-11-16T08:46:09.189Z,12.30
2022-11-16T08:48:37.579Z,12.30
2022-11-16T08:51:17.523Z,12.30
2022-11-16T08:53:48.180Z,12.30
2022-11-16T08:56:16.394Z,12.30
2022-11-16T08:58:44.391Z,12.40
2022-11-16T09:01:16.832Z,12.30
2022-11-16T09:03:44.474Z,12.40
2022-11-16T09:06:12.557Z,12.40
2022-11-16T09:08:41.407Z,12.40
2022-11-16T09:11:10.923Z,12.50
2022-11-16T09:13:38.243Z,12.50
2022-11-16T09:16:05.644Z,12.60
2022-11-16T09:18:34.564Z,12.60
2022-11-16T09:21:01.782Z,12.60
2022-11-16T09:23:28.834Z,12.70
2022-11-16T09:25:55.805Z,12.70
2022-11-16T09:28:22.765Z,12.70
2022-11-16T09:30:51.204Z,12.80
2022-11-16T09:33:18.522Z,12.80
2022-11-16T09:35:45.429Z,12.80
2022-11-16T09:38:16.132Z,12.80
2022-11-16T09:40:48.967Z,12.80
2022-11-16T09:43:31.017Z,12.80
2022-11-16T09:46:13.142Z,12.90
2022-11-16T09:48:41.422Z,12.90
2022-11-16T09:51:13.245Z,12.90
2022-11-16T09:53:51.706Z,12.90
2022-11-16T09:56:25.272Z,13.00
2022-11-16T09:59:20.073Z,13.00
2022-11-16T10:01:58.145Z,13.00
2022-11-16T10:04:43.714Z,13.00
2022-11-16T10:07:26.863Z,13.00
2022-11-16T10:09:55.958Z,13.10
2022-11-16T10:12:28.506Z,13.10
2022-11-16T10:14:57.611Z,13.10
2022-11-16T10:18:03.384Z,13.10
2022-11-16T10:20:51.316Z,13.20
2022-11-16T10:23:21.266Z,13.20
2022-11-16T10:25:58.932Z,13.20
2022-11-16T10:28:50.457Z,13.30
2022-11-16T10:31:34.688Z,13.30
2022-11-16T10:34:04.056Z,13.40
2022-11-16T10:36:32.763Z,13.40
2022-11-16T10:39:02.574Z,13.40
2022-11-16T10:41:43.531Z,13.40
2022-11-16T10:44:30.571Z,13.40
2022-11-16T10:47:09.986Z,13.50
2022-11-16T10:49:55.288Z,13.50
2022-11-16T10:52:22.139Z,13.50
2022-11-16T10:54:49.172Z,13.50
2022-11-16T10:57:16.390Z,13.50
2022-11-16T10:59:50.063Z,13.50
2022-11-16T11:02:22.918Z,13.60
2022-11-16T11:05:20.377Z,13.50
2022-11-16T11:07:58.315Z,13.50
2022-11-16T11:10:32.232Z,13.60
2022-11-16T11:13:25.112Z,13.60
2022-11-16T11:15:52.055Z,13.60
2022-11-16T11:18:26.984Z,13.60
2022-11-16T11:21:19.381Z,13.70
2022-11-16T11:23:54.357Z,13.70
2022-11-16T11:26:35.858Z,13.70
2022-11-16T11:29:28.733Z,13.70
2022-11-16T11:32:00.687Z,13.70
2022-11-16T11:34:29.821Z,13.80
2022-11-16T11:37:03.963Z,13.80
2022-11-16T11:39:37.573Z,13.80
2022-11-16T11:42:13.501Z,13.90
2022-11-16T11:44:44.764Z,13.90
2022-11-16T11:47:56.157Z,13.90
2022-11-16T11:50:27.083Z,13.90
2022-11-16T11:53:05.773Z,13.90
2022-11-16T11:55:32.638Z,13.90
2022-11-16T11:58:02.088Z,13.90
2022-11-16T12:00:52.274Z,13.90
2022-11-16T12:03:26.288Z,14.00
2022-11-16T12:06:06.447Z,13.90
2022-11-16T12:08:42.359Z,14.00
2022-11-16T12:11:11.869Z,14.00
2022-11-16T12:13:59.582Z,14.00
2022-11-16T12:16:52.033Z,14.00
2022-11-16T12:19:21.740Z,14.00
2022-11-16T12:21:54.481Z,14.00
2022-11-16T12:24:49.391Z,14.00
2022-11-16T12:27:27.145Z,14.00
2022-11-16T12:30:11.452Z,14.10
2022-11-16T12:32:38.202Z,14.10
2022-11-16T12:35:23.479Z,14.10
2022-11-16T12:38:05.657Z,14.10
2022-11-16T12:41:09.244Z,14.10
2022-11-16T12:43:59.699Z,14.10
2022-11-16T12:46:32.606Z,14.10
2022-11-16T12:49:40.773Z,14.20
2022-11-16T12:52:19.300Z,14.10
2022-11-16T12:55:30.824Z,14.10
2022-11-16T12:58:06.546Z,14.20
2022-11-16T13:00:49.311Z,14.20
2022-11-16T13:03:38.054Z,14.20
2022-11-16T13:06:12.450Z,14.20
2022-11-16T13:08:57.514Z,14.20
2022-11-16T13:11:33.951Z,14.20
2022-11-16T13:14:05.433Z,14.20
2022-11-16T13:16:32.524Z,14.20
2022-11-16T13:19:00.818Z,14.20
2022-11-16T13:21:45.761Z,14.20
2022-11-16T13:24:33.206Z,14.20
2022-11-16T13:27:02.848Z,14.20
2022-11-16T13:29:30.758Z,14.20
2022-11-16T13:32:16.891Z,14.20
2022-11-16T13:34:44.290Z,14.20
2022-11-16T13:37:38.922Z,14.20
2022-11-16T13:40:05.692Z,14.20
2022-11-16T13:42:41.074Z,14.20
2022-11-16T13:45:16.571Z,14.20
2022-11-16T13:47:54.480Z,14.20
2022-11-16T13:50:46.641Z,14.20
2022-11-16T13:54:17.850Z,14.20
2022-11-16T13:56:16.901Z,14.20
2022-11-16T13:58:51.865Z,14.20
2022-11-16T14:01:19.454Z,14.20
2022-11-16T14:03:49.229Z,14.20
2022-11-16T14:06:24.933Z,14.20
2022-11-16T14:08:55.895Z,14.20
2022-11-16T14:11:31.663Z,14.20
2022-11-16T14:14:05.665Z,14.20
2022-11-16T14:16:49.151Z,14.20
2022-11-16T14:19:44.563Z,14.20
2022-11-16T14:22:29.319Z,14.20
2022-11-16T14:25:02.634Z,14.20
2022-11-16T14:27:39.702Z,14.20
2022-11-16T14:30:21.305Z,14.10
2022-11-16T14:32:50.950Z,14.10
2022-11-16T14:35:39.371Z,14.10
2022-11-16T14:38:38.426Z,14.10
2022-11-16T14:41:11.363Z,14.00
2022-11-16T14:43:49.741Z,14.10
2022-11-16T14:46:28.962Z,14.00
2022-11-16T14:48:58.157Z,13.90
2022-11-16T14:51:37.880Z,14.00
2022-11-16T14:54:35.296Z,13.90
2022-11-16T14:57:07.881Z,13.90
2022-11-16T14:59:34.803Z,13.80
2022-11-16T15:02:12.488Z,13.80
2022-11-16T15:04:39.486Z,13.80
2022-11-16T15:07:07.301Z,13.80
2022-11-16T15:09:37.811Z,13.80
2022-11-16T15:12:24.929Z,13.70
2022-11-16T15:14:57.504Z,13.80
2022-11-16T15:17:33.017Z,13.80
2022-11-16T15:20:02.147Z,13.80
2022-11-16T15:22:32.316Z,13.70
2022-11-16T15:25:00.928Z,13.70
2022-11-16T15:27:43.619Z,13.70
2022-11-16T15:30:23.297Z,13.70
2022-11-16T15:32:52.051Z,13.70
2022-11-16T15:35:22.779Z,13.70
2022-11-16T15:38:20.715Z,13.70
2022-11-16T15:40:52.076Z,13.70
2022-11-16T15:43:21.808Z,13.60
2022-11-16T15:45:49.295Z,13.70
2022-11-16T15:48:20.919Z,13.60
2022-11-16T15:51:08.050Z,13.60
2022-11-16T15:53:43.481Z,13.70
2022-11-16T15:56:25.244Z,13.60
2022-11-16T15:58:57.304Z,13.60
2022-11-16T16:01:25.786Z,13.60
2022-11-16T16:04:06.836Z,13.60
2022-11-16T16:06:42.791Z,13.60
2022-11-16T16:09:13.205Z,13.60
2022-11-16T16:11:39.987Z,13.60
2022-11-16T16:14:10.987Z,13.60
2022-11-16T16:16:39.382Z,13.60
2022-11-16T16:19:34.527Z,13.60
2022-11-16T16:22:02.717Z,13.60
2022-11-16T16:24:47.335Z,13.60
2022-11-16T16:27:37.854Z,13.50
2022-11-16T16:30:06.923Z,13.60
2022-11-16T16:32:36.032Z,13.50
2022-11-16T16:35:05.345Z,13.60
2022-11-16T16:37:34.300Z,13.60
2022-11-16T16:40:01.257Z,13.50
2022-11-16T16:42:28.507Z,13.50
2022-11-16T16:44:55.308Z,13.50
2022-11-16T16:47:22.172Z,13.60
2022-11-16T16:49:49.648Z,13.60
2022-11-16T16:52:17.109Z,13.60
2022-11-16T16:54:44.334Z,13.50
2022-11-16T16:57:17.061Z,13.50
2022-11-16T16:59:45.493Z,13.50
2022-11-16T17:02:13.080Z,13.50
2022-11-16T17:04:40.243Z,13.50
2022-11-16T17:07:07.183Z,13.50
2022-11-16T17:09:34.057Z,13.50
2022-11-16T17:12:00.911Z,13.50
2022-11-16T17:14:27.718Z,13.50
2022-11-16T17:16:54.578Z,13.50
2022-11-16T17:19:22.052Z,13.50
2022-11-16T17:21:50.679Z,13.50
2022-11-16T17:24:17.526Z,13.60
2022-11-16T17:26:48.382Z,13.50
2022-11-16T17:29:16.117Z,13.60
2022-11-16T17:31:44.244Z,13.50
2022-11-16T17:34:13.768Z,13.50
2022-11-16T17:36:41.600Z,13.50
2022-11-16T17:39:08.420Z,13.50
2022-11-16T17:41:35.243Z,13.50
2022-11-16T17:44:02.258Z,13.50
2022-11-16T17:46:29.230Z,13.50
2022-11-16T17:48:56.313Z,13.50
2022-11-16T17:51:25.031Z,13.50
2022-11-16T17:53:52.619Z,13.50
2022-11-16T17:56:26.106Z,13.40
2022-11-16T17:58:55.074Z,13.50
2022-11-16T18:01:22.822Z,13.50
2022-11-16T18:03:49.698Z,13.40
2022-11-16T18:06:18.903Z,13.50
2022-11-16T18:08:46.118Z,13.50
2022-11-16T18:11:15.541Z,13.50
2022-11-16T18:13:43.656Z,13.50
2022-11-16T18:16:13.183Z,13.50
2022-11-16T18:18:40.913Z,13.50
2022-11-16T18:21:09.004Z,13.40
2022-11-16T18:23:37.652Z,13.40
2022-11-16T18:26:18.895Z,13.40
2022-11-16T18:28:46.250Z,13.40
2022-11-16T18:31:15.558Z,13.40
2022-11-16T18:33:43.115Z,13.40
2022-11-16T18:36:11.604Z,13.40
2022-11-16T18:38:38.845Z,13.40
2022-11-16T18:41:11.573Z,13.40
2022-11-16T18:44:00.174Z,13.40
2022-11-16T18:46:31.886Z,13.40
2022-11-16T18:48:59.248Z,13.40
2022-11-16T18:51:27.666Z,13.40
2022-11-16T18:53:55.337Z,13.40
2022-11-16T18:56:23.179Z,13.40
2022-11-16T18:58:51.931Z,13.40
2022-11-16T19:01:24.312Z,13.40
2022-11-16T19:03:52.547Z,13.40
2022-11-16T19:06:19.808Z,13.50
2022-11-16T19:08:52.120Z,13.40
2022-11-16T19:11:20.985Z,13.40
2022-11-16T19:13:56.124Z,13.40
2022-11-16T19:16:24.187Z,13.40
2022-11-16T19:18:51.379Z,13.40
2022-11-16T19:21:18.987Z,13.40
2022-11-16T19:23:53.863Z,13.50
2022-11-16T19:26:23.554Z,13.40
2022-11-16T19:28:51.191Z,13.50
2022-11-16T19:31:22.806Z,13.50
2022-11-16T19:33:57.292Z,13.40
2022-11-16T19:36:25.537Z,13.50
2022-11-16T19:38:52.961Z,13.40
2022-11-16T19:41:22.393Z,13.40
2022-11-16T19:43:52.755Z,13.40
2022-11-16T19:46:24.357Z,13.40
2022-11-16T19:48:52.076Z,13.40
2022-11-16T19:51:21.379Z,13.40
2022-11-16T19:53:48.727Z,13.40
2022-11-16T19:56:17.535Z,13.40
2022-11-16T19:58:44.842Z,13.40
2022-11-16T20:01:13.550Z,13.40
2022-11-16T20:03:42.296Z,13.40
2022-11-16T20:06:13.686Z,13.40
2022-11-16T20:08:42.763Z,13.40
2022-11-16T20:11:34.197Z,13.40
2022-11-16T20:14:02.424Z,13.50
2022-11-16T20:16:38.742Z,13.40
2022-11-16T20:19:07.698Z,13.40
2022-11-16T20:21:37.123Z,13.50
2022-11-16T20:24:06.974Z,13.50
2022-11-16T20:26:35.838Z,13.40
2022-11-16T20:29:03.104Z,13.40
2022-11-16T20:31:31.705Z,13.40
2022-11-16T20:34:00.536Z,13.40
2022-11-16T20:36:29.543Z,13.40
2022-11-16T20:38:57.617Z,13.40
2022-11-16T20:41:29.768Z,13.50
2022-11-16T20:43:58.632Z,13.50
2022-11-16T20:46:38.520Z,13.50
2022-11-16T20:49:05.560Z,13.50
2022-11-16T20:51:32.466Z,13.50
2022-11-16T20:53:59.400Z,13.50
2022-11-16T20:56:27.077Z,13.50
2022-11-16T20:58:54.135Z,13.50
2022-11-16T21:01:31.750Z,13.50
2022-11-16T21:04:01.565Z,13.50
2022-11-16T21:06:28.826Z,13.50
2022-11-16T21:08:56.168Z,13.60
2022-11-16T21:11:29.060Z,13.60
2022-11-16T21:14:14.850Z,13.60
2022-11-16T21:16:41.907Z,13.60
2022-11-16T21:19:08.985Z,13.60
2022-11-16T21:21:35.869Z,13.60
2022-11-16T21:24:02.729Z,13.70
2022-11-16T21:26:31.660Z,13.60
2022-11-16T21:28:59.692Z,13.60
2022-11-16T21:31:29.754Z,13.70
2022-11-16T21:33:57.163Z,13.70
2022-11-16T21:36:26.182Z,13.70
2022-11-16T21:38:53.620Z,13.70
2022-11-16T21:41:22.178Z,13.70
2022-11-16T21:43:49.218Z,13.70
2022-11-16T21:46:26.527Z,13.70
2022-11-16T21:48:55.498Z,13.70
2022-11-16T21:51:25.256Z,13.70
2022-11-16T21:53:52.307Z,13.70
2022-11-16T21:56:21.238Z,13.70
2022-11-16T21:58:49.998Z,13.70
2022-11-16T22:01:17.041Z,13.70
2022-11-16T22:03:44.841Z,13.70
2022-11-16T22:06:35.203Z,13.70
2022-11-16T22:09:02.251Z,13.70
2022-11-16T22:11:29.041Z,13.70
2022-11-16T22:13:55.830Z,13.70
2022-11-16T22:16:23.467Z,13.70
2022-11-16T22:18:50.841Z,13.70
2022-11-16T22:21:18.205Z,13.70
2022-11-16T22:23:45.036Z,13.70
2022-11-16T22:26:13.322Z,13.70
2022-11-16T22:28:40.454Z,13.70
2022-11-16T22:31:14.733Z,13.70
2022-11-16T22:33:42.311Z,13.60
2022-11-16T22:36:13.357Z,13.70
2022-11-16T22:38:40.191Z,13.60
2022-11-16T22:41:07.028Z,13.70
2022-11-16T22:43:34.184Z,13.60
2022-11-16T22:46:04.405Z,13.60
2022-11-16T22:48:36.396Z,13.50
2022-11-16T22:51:05.182Z,13.60
2022-11-16T22:53:32.291Z,13.50
2022-11-16T22:56:10.027Z,13.50
2022-11-16T22:58:37.981Z,13.50
2022-11-16T23:01:07.458Z,13.50
2022-11-16T23:03:35.051Z,13.60
2022-11-16T23:06:02.546Z,13.50
2022-11-16T23:08:29.405Z,13.50
2022-11-16T23:11:20.767Z,13.50
2022-11-16T23:14:06.894Z,13.50
2022-11-16T23:16:34.802Z,13.50
2022-11-16T23:19:01.910Z,13.60
2022-11-16T23:21:47.157Z,13.60
2022-11-16T23:24:34.390Z,13.60
2022-11-16T23:27:23.101Z,13.60
2022-11-16T23:29:50.066Z,13.60
2022-11-16T23:32:17.024Z,13.60
2022-11-16T23:34:43.825Z,13.60
2022-11-16T23:37:10.636Z,13.60
2022-11-16T23:39:37.448Z,13.60
2022-11-16T23:42:23.058Z,13.60
2022-11-16T23:44:49.976Z,13.60
2022-11-16T23:47:16.784Z,13.60
2022-11-16T23:49:43.592Z,13.70
2022-11-16T23:52:10.995Z,13.70
2022-11-16T23:54:37.903Z,13.70
2022-11-16T23:57:05.318Z,13.70
2022-11-16T23:59:32.591Z,13.70
